Time;durP1;ratioP1;P1;durP2;ratioP2;P2;SDS_P1;SDS_P2;PMS_P1;PMS_P2;Temp;Humidity;BMP_temperature;BMP_pressure;BME280_temperature;BME280_humidity;BME280_pressure;Samples;Min_cycle;Max_cycle;Signal;HPM_P1;HPM_P2
2023/04/07 00:02:10;;;;;;;17.73;7.93;;;;;;;;;;5002449;28;20034;-58
2023/04/07 00:04:36;;;;;;;17.50;7.95;;;;;;;;;;5009135;28;20500;-58
2023/04/07 00:07:02;;;;;;;17.40;8.45;;;;;;;;;;5007452;28;20034;-58
2023/04/07 00:09:28;;;;;;;15.48;7.95;;;;;;;;;;5009187;28;20030;-58
2023/04/07 00:11:55;;;;;;;17.35;7.55;;;;;;;;;;5008726;28;20437;-58
2023/04/07 00:14:21;;;;;;;16.83;8.15;;;;;;;;;;5007582;28;20037;-58
2023/04/07 00:16:47;;;;;;;20.65;8.00;;;;;;;;;;5008632;28;20503;-58
2023/04/07 00:19:13;;;;;;;19.45;7.85;;;;;;;;;;5006617;28;20431;-57
2023/04/07 00:21:39;;;;;;;15.98;7.78;;;;;;;;;;5005087;28;20034;-59
2023/04/07 00:24:06;;;;;;;17.38;8.27;;;;;;;;;;5008817;28;20042;-59
2023/04/07 00:26:32;;;;;;;15.18;7.78;;;;;;;;;;5008734;28;20050;-58
2023/04/07 00:28:58;;;;;;;16.25;8.48;;;;;;;;;;5008255;28;20037;-57
2023/04/07 00:31:25;;;;;;;18.85;8.50;;;;;;;;;;5004089;28;20034;-57
2023/04/07 00:33:51;;;;;;;19.90;8.88;;;;;;;;;;5009110;28;20050;-58
2023/04/07 00:36:17;;;;;;;18.90;8.68;;;;;;;;;;5007446;28;20037;-58
2023/04/07 00:38:43;;;;;;;16.20;8.73;;;;;;;;;;5007042;28;20073;-58
2023/04/07 00:41:10;;;;;;;19.70;8.77;;;;;;;;;;5004907;28;20042;-58
2023/04/07 00:43:36;;;;;;;19.13;8.95;;;;;;;;;;5007226;28;20038;-58
2023/04/07 00:46:02;;;;;;;18.52;8.65;;;;;;;;;;5008540;28;20034;-58
2023/04/07 00:48:29;;;;;;;16.15;7.90;;;;;;;;;;5007373;28;20510;-58
2023/04/07 00:50:56;;;;;;;18.10;8.48;;;;;;;;;;5002216;28;20069;-58
2023/04/07 00:53:22;;;;;;;18.90;8.88;;;;;;;;;;5009075;28;20474;-59
2023/04/07 00:55:48;;;;;;;18.27;9.13;;;;;;;;;;5008630;28;20030;-58
2023/04/07 00:58:15;;;;;;;18.63;8.35;;;;;;;;;;5007065;28;20049;-58
2023/04/07 01:00:49;;;;;;;20.50;9.18;;;;;;;;;;5006910;28;20042;-58
2023/04/07 01:03:29;;;;;;;19.33;8.63;;;;;;;;;;5003713;28;20038;-59
2023/04/07 01:06:01;;;;;;;18.38;9.10;;;;;;;;;;5008583;28;20041;-57
2023/04/07 01:08:59;;;;;;;17.10;8.93;;;;;;;;;;5006896;28;20690;-58
2023/04/07 01:11:51;;;;;;;17.70;8.80;;;;;;;;;;5002576;28;20526;-58
2023/04/07 01:14:20;;;;;;;19.63;9.30;;;;;;;;;;5005805;28;20053;-58
2023/04/07 01:16:59;;;;;;;17.67;8.75;;;;;;;;;;5006633;28;20415;-57
2023/04/07 01:19:35;;;;;;;18.75;9.57;;;;;;;;;;5006555;28;20052;-59
2023/04/07 01:22:09;;;;;;;20.33;9.27;;;;;;;;;;5009003;28;20045;-58
2023/04/07 01:24:44;;;;;;;18.92;9.02;;;;;;;;;;5007508;28;20034;-58
2023/04/07 01:27:26;;;;;;;21.13;9.45;;;;;;;;;;5005626;28;20045;-58
2023/04/07 01:29:53;;;;;;;17.17;8.85;;;;;;;;;;5007840;28;20049;-57
2023/04/07 01:32:22;;;;;;;20.35;8.98;;;;;;;;;;5011262;28;20495;-57
2023/04/07 01:34:51;;;;;;;21.67;9.07;;;;;;;;;;5005468;28;20042;-58
2023/04/07 01:37:18;;;;;;;18.33;9.30;;;;;;;;;;5012704;28;20042;-58
2023/04/07 01:39:44;;;;;;;20.02;9.45;;;;;;;;;;5006302;28;20065;-58
2023/04/07 01:42:11;;;;;;;19.48;9.68;;;;;;;;;;5010702;28;20033;-58
2023/04/07 01:44:39;;;;;;;21.23;9.23;;;;;;;;;;5009955;28;20049;-57
2023/04/07 01:47:06;;;;;;;20.90;9.32;;;;;;;;;;5012392;28;20053;-58
2023/04/07 01:49:33;;;;;;;17.70;9.10;;;;;;;;;;5009463;28;20034;-58
2023/04/07 01:52:00;;;;;;;17.17;8.98;;;;;;;;;;5009138;28;20045;-59
2023/04/07 01:54:27;;;;;;;19.02;9.48;;;;;;;;;;5011157;28;20046;-58
2023/04/07 01:56:53;;;;;;;18.67;9.13;;;;;;;;;;5011891;28;20279;-58
2023/04/07 01:59:20;;;;;;;20.08;10.20;;;;;;;;;;5009728;28;20589;-58
2023/04/07 02:01:47;;;;;;;17.95;9.18;;;;;;;;;;5011025;28;20025;-58
2023/04/07 02:04:37;;;;;;;15.13;8.35;;;;;;;;;;5010379;28;20066;-57
2023/04/07 02:07:18;;;;;;;18.25;8.80;;;;;;;;;;5007113;28;20056;-58
2023/04/07 02:09:50;;;;;;;15.55;8.57;;;;;;;;;;5024061;28;20048;-57
2023/04/07 02:12:17;;;;;;;16.90;8.95;;;;;;;;;;5010564;28;20025;-58
2023/04/07 02:14:57;;;;;;;18.75;9.13;;;;;;;;;;4995022;28;20045;-58
2023/04/07 02:17:27;;;;;;;17.40;9.45;;;;;;;;;;5008410;28;20053;-58
2023/04/07 02:19:57;;;;;;;18.33;8.63;;;;;;;;;;5007786;28;20033;-58
2023/04/07 02:22:23;;;;;;;15.88;8.52;;;;;;;;;;5004373;28;20041;-59
2023/04/07 02:24:50;;;;;;;19.77;9.63;;;;;;;;;;5006448;28;20029;-59
2023/04/07 02:27:16;;;;;;;16.08;8.77;;;;;;;;;;5007044;28;20025;-58
2023/04/07 02:29:42;;;;;;;15.02;8.52;;;;;;;;;;5010345;28;20052;-58
2023/04/07 02:32:08;;;;;;;15.13;8.25;;;;;;;;;;5010711;28;20038;-57
2023/04/07 02:34:35;;;;;;;17.48;9.27;;;;;;;;;;5010667;28;20037;-58
2023/04/07 02:37:01;;;;;;;15.35;8.30;;;;;;;;;;5011715;28;20451;-58
2023/04/07 02:39:27;;;;;;;17.15;9.20;;;;;;;;;;5008735;28;20034;-59
2023/04/07 02:41:53;;;;;;;13.52;8.45;;;;;;;;;;4993187;28;20034;-58
2023/04/07 02:44:19;;;;;;;13.77;7.97;;;;;;;;;;5007429;28;20034;-58
2023/04/07 02:46:45;;;;;;;19.45;8.98;;;;;;;;;;5010755;28;20044;-58
2023/04/07 02:49:12;;;;;;;16.27;8.68;;;;;;;;;;5008925;28;20201;-57
2023/04/07 02:51:38;;;;;;;16.65;8.38;;;;;;;;;;5010595;28;20029;-57
2023/04/07 02:54:04;;;;;;;16.85;8.85;;;;;;;;;;5010541;28;20041;-58
2023/04/07 02:56:31;;;;;;;15.27;8.15;;;;;;;;;;5008814;28;20060;-58
2023/04/07 02:58:57;;;;;;;14.05;7.53;;;;;;;;;;5008440;28;20065;-57
2023/04/07 03:01:24;;;;;;;15.35;8.68;;;;;;;;;;5009197;28;20147;-58
2023/04/07 03:03:50;;;;;;;14.07;9.02;;;;;;;;;;5008264;28;20515;-58
2023/04/07 03:06:22;;;;;;;15.30;7.80;;;;;;;;;;5008927;28;20419;-58
2023/04/07 03:09:06;;;;;;;14.38;7.75;;;;;;;;;;5009264;28;20026;-58
2023/04/07 03:11:33;;;;;;;17.05;8.45;;;;;;;;;;5008564;28;20073;-58
2023/04/07 03:13:59;;;;;;;15.40;8.57;;;;;;;;;;5006418;28;20475;-58
2023/04/07 03:16:27;;;;;;;15.43;8.25;;;;;;;;;;5008224;28;20049;-58
2023/04/07 03:19:08;;;;;;;15.60;8.35;;;;;;;;;;5002213;28;20044;-57
2023/04/07 03:21:39;;;;;;;14.18;8.75;;;;;;;;;;5008845;28;20570;-58
2023/04/07 03:24:06;;;;;;;13.90;8.60;;;;;;;;;;5008316;28;20049;-58
2023/04/07 03:26:32;;;;;;;15.88;8.85;;;;;;;;;;5010126;28;20034;-58
2023/04/07 03:29:00;;;;;;;15.27;8.25;;;;;;;;;;5006826;28;20045;-57
2023/04/07 03:31:27;;;;;;;13.77;8.27;;;;;;;;;;5008347;28;20514;-58
2023/04/07 03:33:54;;;;;;;13.52;7.88;;;;;;;;;;5004544;28;20046;-58
2023/04/07 03:36:21;;;;;;;13.85;8.13;;;;;;;;;;5008089;28;20038;-59
2023/04/07 03:38:47;;;;;;;18.70;8.68;;;;;;;;;;5004947;28;20139;-58
2023/04/07 03:41:16;;;;;;;13.77;7.72;;;;;;;;;;5008431;28;20056;-58
2023/04/07 03:43:42;;;;;;;14.23;8.07;;;;;;;;;;5009526;28;20534;-58
2023/04/07 03:46:09;;;;;;;15.20;8.32;;;;;;;;;;5008348;28;20033;-57
2023/04/07 03:48:36;;;;;;;18.38;10.40;;;;;;;;;;5009008;28;20041;-58
2023/04/07 03:51:07;;;;;;;21.15;10.27;;;;;;;;;;5007862;28;20060;-57
2023/04/07 03:53:34;;;;;;;19.55;9.70;;;;;;;;;;5008064;28;20200;-58
2023/04/07 03:56:10;;;;;;;18.55;9.35;;;;;;;;;;5008626;28;20049;-58
2023/04/07 03:58:45;;;;;;;17.25;9.40;;;;;;;;;;5006006;28;20046;-58
2023/04/07 04:01:17;;;;;;;20.05;9.40;;;;;;;;;;5007945;28;20034;-58
2023/04/07 04:03:46;;;;;;;15.98;8.93;;;;;;;;;;5008312;28;20030;-59
2023/04/07 04:06:26;;;;;;;17.17;8.93;;;;;;;;;;5007640;28;20033;-58
2023/04/07 04:08:58;;;;;;;16.65;8.77;;;;;;;;;;5008356;28;20046;-58
2023/04/07 04:11:26;;;;;;;17.15;8.73;;;;;;;;;;5008110;28;20030;-58
2023/04/07 04:13:58;;;;;;;17.50;8.38;;;;;;;;;;5036928;28;20041;-58
2023/04/07 04:16:24;;;;;;;16.45;9.13;;;;;;;;;;5008992;28;20420;-58
2023/04/07 04:18:52;;;;;;;17.73;9.32;;;;;;;;;;5006806;28;20407;-57
2023/04/07 04:21:19;;;;;;;15.40;8.45;;;;;;;;;;5007396;28;20045;-57
2023/04/07 04:23:47;;;;;;;17.98;9.23;;;;;;;;;;5008224;28;20045;-58
2023/04/07 04:26:14;;;;;;;15.68;8.40;;;;;;;;;;5004495;28;20064;-58
2023/04/07 04:28:43;;;;;;;18.17;9.38;;;;;;;;;;5007769;28;20141;-58
2023/04/07 04:31:10;;;;;;;15.77;8.45;;;;;;;;;;5009153;28;20026;-58
2023/04/07 04:33:42;;;;;;;17.55;8.63;;;;;;;;;;4987170;28;20034;-57
2023/04/07 04:36:09;;;;;;;15.10;8.60;;;;;;;;;;5007159;28;20061;-58
2023/04/07 04:38:35;;;;;;;14.55;8.93;;;;;;;;;;4991966;28;20068;-58
2023/04/07 04:41:20;;;;;;;14.90;7.97;;;;;;;;;;5006901;28;20042;-58
2023/04/07 04:43:48;;;;;;;16.98;9.40;;;;;;;;;;5007752;28;20042;-57
2023/04/07 04:46:20;;;;;;;16.92;8.75;;;;;;;;;;5008381;28;20037;-58
2023/04/07 04:48:48;;;;;;;17.58;9.70;;;;;;;;;;5003269;28;20037;-58
2023/04/07 04:51:16;;;;;;;17.73;9.05;;;;;;;;;;5001657;28;20034;-59
2023/04/07 04:53:45;;;;;;;17.50;9.17;;;;;;;;;;5007710;28;20427;-58
2023/04/07 04:56:11;;;;;;;17.23;8.80;;;;;;;;;;4991622;28;20097;-59
2023/04/07 04:58:47;;;;;;;15.80;8.13;;;;;;;;;;5007595;28;20044;-58
2023/04/07 05:01:36;;;;;;;15.30;8.02;;;;;;;;;;5005168;28;21644;-59
2023/04/07 05:04:08;;;;;;;15.60;8.50;;;;;;;;;;5007421;28;20046;-57
2023/04/07 05:06:34;;;;;;;17.52;8.65;;;;;;;;;;5011065;28;20113;-58
2023/04/07 05:09:06;;;;;;;16.02;9.15;;;;;;;;;;5004628;28;20367;-58
2023/04/07 05:11:41;;;;;;;19.15;8.63;;;;;;;;;;5010220;28;20038;-57
2023/04/07 05:14:07;;;;;;;19.00;9.65;;;;;;;;;;5009523;28;20049;-57
2023/04/07 05:16:34;;;;;;;21.33;9.40;;;;;;;;;;5011256;28;20044;-58
2023/04/07 05:19:01;;;;;;;21.48;10.18;;;;;;;;;;5008843;28;20519;-58
2023/04/07 05:21:27;;;;;;;20.25;9.98;;;;;;;;;;5010949;28;20038;-58
2023/04/07 05:23:57;;;;;;;24.75;11.02;;;;;;;;;;5008732;28;20046;-58
2023/04/07 05:26:23;;;;;;;22.45;10.20;;;;;;;;;;5006982;28;20038;-58
2023/04/07 05:28:50;;;;;;;22.23;10.18;;;;;;;;;;5010934;28;20034;-58
2023/04/07 05:31:20;;;;;;;18.13;9.18;;;;;;;;;;5010783;28;20403;-57
2023/04/07 05:33:49;;;;;;;19.30;9.73;;;;;;;;;;5010793;28;20166;-57
2023/04/07 05:36:16;;;;;;;19.83;9.75;;;;;;;;;;5010746;28;20049;-57
2023/04/07 05:38:42;;;;;;;22.90;10.50;;;;;;;;;;5010834;28;20046;-57
2023/04/07 05:41:13;;;;;;;24.90;11.18;;;;;;;;;;5010278;28;20049;-57
2023/04/07 05:43:39;;;;;;;25.15;11.25;;;;;;;;;;5011493;28;20411;-57
2023/04/07 05:46:05;;;;;;;22.88;11.20;;;;;;;;;;5011337;28;20030;-57
2023/04/07 05:48:35;;;;;;;26.92;11.50;;;;;;;;;;5010786;28;20454;-57
2023/04/07 05:51:02;;;;;;;26.13;11.65;;;;;;;;;;5006709;28;20408;-58
2023/04/07 05:53:30;;;;;;;28.98;12.35;;;;;;;;;;5010596;28;20483;-58
2023/04/07 05:55:56;;;;;;;29.55;13.48;;;;;;;;;;5010292;28;20044;-58
2023/04/07 05:58:40;;;;;;;29.92;12.32;;;;;;;;;;5008682;28;20045;-57
2023/04/07 06:01:07;;;;;;;25.10;11.60;;;;;;;;;;5010181;28;20026;-58
2023/04/07 06:03:34;;;;;;;29.58;13.70;;;;;;;;;;5011744;28;20037;-57
2023/04/07 06:06:09;;;;;;;34.80;14.70;;;;;;;;;;5010040;28;20034;-58
2023/04/07 06:08:36;;;;;;;28.92;12.13;;;;;;;;;;5009363;28;20068;-57
2023/04/07 06:11:02;;;;;;;31.02;12.82;;;;;;;;;;5008271;28;20492;-57
2023/04/07 06:13:28;;;;;;;29.83;12.68;;;;;;;;;;5009875;28;20053;-58
2023/04/07 06:15:55;;;;;;;35.53;13.85;;;;;;;;;;5009095;28;20528;-57
2023/04/07 06:18:22;;;;;;;31.80;13.27;;;;;;;;;;5008733;28;20046;-57
2023/04/07 06:20:48;;;;;;;27.83;12.05;;;;;;;;;;5007824;28;20061;-58
2023/04/07 06:23:14;;;;;;;29.30;12.18;;;;;;;;;;5009361;28;20057;-58
2023/04/07 06:25:40;;;;;;;36.67;13.27;;;;;;;;;;5009258;28;20041;-59
2023/04/07 06:28:06;;;;;;;31.35;13.80;;;;;;;;;;5007771;28;20038;-59
2023/04/07 06:30:33;;;;;;;33.13;13.93;;;;;;;;;;5011028;28;20388;-58
2023/04/07 06:32:59;;;;;;;29.88;12.35;;;;;;;;;;5009331;28;20034;-57
2023/04/07 06:35:26;;;;;;;31.88;12.55;;;;;;;;;;5009685;28;20403;-58
2023/04/07 06:37:52;;;;;;;31.42;13.75;;;;;;;;;;5009723;28;20484;-58
2023/04/07 06:40:18;;;;;;;36.75;13.88;;;;;;;;;;5008451;28;20558;-58
2023/04/07 06:42:44;;;;;;;31.38;13.05;;;;;;;;;;5010690;28;20041;-58
2023/04/07 06:45:19;;;;;;;30.17;13.23;;;;;;;;;;5003871;28;20038;-56
2023/04/07 06:47:45;;;;;;;33.00;13.60;;;;;;;;;;5010826;28;20029;-59
2023/04/07 06:50:11;;;;;;;31.70;13.85;;;;;;;;;;5009430;28;20045;-58
2023/04/07 06:52:37;;;;;;;33.05;14.35;;;;;;;;;;5007560;28;20033;-58
2023/04/07 06:55:04;;;;;;;38.13;17.00;;;;;;;;;;5010635;28;20045;-57
2023/04/07 06:57:30;;;;;;;46.45;20.70;;;;;;;;;;5010547;28;20037;-57
2023/04/07 06:59:56;;;;;;;48.65;22.88;;;;;;;;;;5009606;28;20052;-58
2023/04/07 07:02:22;;;;;;;47.30;21.25;;;;;;;;;;5009974;28;20042;-58
2023/04/07 07:04:49;;;;;;;44.00;19.90;;;;;;;;;;5008324;28;20037;-58
2023/04/07 07:07:15;;;;;;;48.95;23.92;;;;;;;;;;5010593;28;20050;-58
2023/04/07 07:09:41;;;;;;;52.55;24.38;;;;;;;;;;5009860;28;20056;-57
2023/04/07 07:12:07;;;;;;;40.00;20.23;;;;;;;;;;5008508;28;20033;-59
2023/04/07 07:14:33;;;;;;;42.55;18.88;;;;;;;;;;5006483;28;20487;-59
2023/04/07 07:16:59;;;;;;;42.03;18.45;;;;;;;;;;5009192;28;20037;-58
2023/04/07 07:19:26;;;;;;;42.33;19.45;;;;;;;;;;5010069;28;20045;-57
2023/04/07 07:21:52;;;;;;;46.80;19.35;;;;;;;;;;5009611;28;20046;-56
2023/04/07 07:24:18;;;;;;;42.00;16.70;;;;;;;;;;5005894;28;20915;-58
2023/04/07 07:26:44;;;;;;;41.00;16.50;;;;;;;;;;5009223;28;20037;-58
2023/04/07 07:29:11;;;;;;;28.42;10.88;;;;;;;;;;5007940;28;20034;-57
2023/04/07 07:31:37;;;;;;;40.55;16.88;;;;;;;;;;5004040;28;20413;-59
2023/04/07 07:34:03;;;;;;;43.17;18.17;;;;;;;;;;5008612;28;20037;-58
2023/04/07 07:36:31;;;;;;;47.00;17.58;;;;;;;;;;5008847;28;20515;-57
2023/04/07 07:38:57;;;;;;;46.85;20.02;;;;;;;;;;5009517;28;20042;-56
2023/04/07 07:41:23;;;;;;;49.22;19.35;;;;;;;;;;5009357;28;20038;-56
2023/04/07 07:43:49;;;;;;;47.92;21.30;;;;;;;;;;5009275;28;20053;-58
2023/04/07 07:46:15;;;;;;;44.78;21.23;;;;;;;;;;5008171;28;20034;-58
2023/04/07 07:48:41;;;;;;;43.97;20.58;;;;;;;;;;5009453;28;20049;-58
2023/04/07 07:51:07;;;;;;;40.22;18.98;;;;;;;;;;5009296;28;20392;-58
2023/04/07 07:53:34;;;;;;;38.67;17.52;;;;;;;;;;5009640;28;20058;-58
2023/04/07 07:56:00;;;;;;;39.60;17.48;;;;;;;;;;5009665;28;20042;-58
2023/04/07 07:58:26;;;;;;;39.00;17.20;;;;;;;;;;5009418;28;20374;-58
2023/04/07 08:00:53;;;;;;;33.03;14.32;;;;;;;;;;5008537;28;20573;-58
2023/04/07 08:03:21;;;;;;;29.00;13.50;;;;;;;;;;5009543;28;20050;-57
2023/04/07 08:05:47;;;;;;;26.13;12.25;;;;;;;;;;5005362;28;20508;-57
2023/04/07 08:08:14;;;;;;;24.73;12.20;;;;;;;;;;5007869;28;20073;-58
2023/04/07 08:10:40;;;;;;;21.10;11.48;;;;;;;;;;5007455;28;20029;-58
2023/04/07 08:13:06;;;;;;;18.52;9.95;;;;;;;;;;5009302;28;20042;-58
2023/04/07 08:15:33;;;;;;;14.48;6.80;;;;;;;;;;5006655;28;20029;-57
2023/04/07 08:17:59;;;;;;;14.60;5.95;;;;;;;;;;5009102;28;20042;-58
2023/04/07 08:20:26;;;;;;;17.63;7.18;;;;;;;;;;5008531;28;20037;-59
2023/04/07 08:22:52;;;;;;;14.57;8.20;;;;;;;;;;5005836;28;20046;-56
2023/04/07 08:25:19;;;;;;;15.05;8.13;;;;;;;;;;5009001;28;20049;-57
2023/04/07 08:27:45;;;;;;;14.65;8.45;;;;;;;;;;5008076;28;20033;-57
2023/04/07 08:30:12;;;;;;;13.32;7.68;;;;;;;;;;5007540;28;20079;-59
2023/04/07 08:32:42;;;;;;;16.42;8.32;;;;;;;;;;5009019;28;20048;-58
2023/04/07 08:35:09;;;;;;;15.63;8.65;;;;;;;;;;5008575;28;20384;-59
2023/04/07 08:37:37;;;;;;;18.60;9.63;;;;;;;;;;5009247;28;20034;-59
2023/04/07 08:40:04;;;;;;;15.38;8.80;;;;;;;;;;5005323;28;20037;-58
2023/04/07 08:42:33;;;;;;;14.88;8.90;;;;;;;;;;5010395;28;20040;-59
2023/04/07 08:45:06;;;;;;;13.02;7.93;;;;;;;;;;5012492;28;20057;-57
2023/04/07 08:47:34;;;;;;;13.80;8.45;;;;;;;;;;5026244;28;20046;-58
2023/04/07 08:50:04;;;;;;;14.70;8.02;;;;;;;;;;5012123;28;20397;-58
2023/04/07 08:52:43;;;;;;;12.48;7.35;;;;;;;;;;5012745;28;20403;-59
2023/04/07 08:55:10;;;;;;;10.90;6.38;;;;;;;;;;5004764;28;20030;-58
2023/04/07 08:57:36;;;;;;;15.00;7.93;;;;;;;;;;5013285;28;20057;-58
2023/04/07 09:00:06;;;;;;;9.50;6.85;;;;;;;;;;5011345;28;20033;-58
2023/04/07 09:02:34;;;;;;;10.18;5.80;;;;;;;;;;5012052;28;20419;-58
2023/04/07 09:05:03;;;;;;;9.85;6.28;;;;;;;;;;5011144;28;20045;-58
2023/04/07 09:07:33;;;;;;;10.10;6.03;;;;;;;;;;5013028;28;20515;-58
2023/04/07 09:10:03;;;;;;;10.48;6.45;;;;;;;;;;5010285;28;20042;-57
2023/04/07 09:12:30;;;;;;;7.93;5.28;;;;;;;;;;5007815;28;20038;-58
2023/04/07 09:14:57;;;;;;;9.55;6.50;;;;;;;;;;5009313;28;20053;-58
2023/04/07 09:17:28;;;;;;;10.05;6.43;;;;;;;;;;5012645;28;20057;-58
2023/04/07 09:19:59;;;;;;;13.45;6.03;;;;;;;;;;5011127;28;20045;-58
2023/04/07 09:22:41;;;;;;;10.25;6.03;;;;;;;;;;5010221;28;20416;-57
2023/04/07 09:25:19;;;;;;;11.13;6.35;;;;;;;;;;5010352;28;20050;-57
2023/04/07 09:28:03;;;;;;;10.65;5.80;;;;;;;;;;5011048;28;20045;-58
2023/04/07 09:30:32;;;;;;;10.55;5.90;;;;;;;;;;5003955;28;20053;-58
2023/04/07 09:33:00;;;;;;;9.07;6.47;;;;;;;;;;5011696;28;20037;-58
2023/04/07 09:35:27;;;;;;;10.98;4.80;;;;;;;;;;5011574;28;20038;-58
2023/04/07 09:38:02;;;;;;;12.70;4.38;;;;;;;;;;5012090;28;20046;-59
2023/04/07 09:40:29;;;;;;;8.25;5.40;;;;;;;;;;5008711;28;20459;-58
2023/04/07 09:42:57;;;;;;;9.00;5.47;;;;;;;;;;5009769;28;20042;-60
2023/04/07 09:45:27;;;;;;;9.93;5.75;;;;;;;;;;5011254;28;20042;-57
2023/04/07 09:47:54;;;;;;;6.65;5.00;;;;;;;;;;5005003;28;20053;-57
2023/04/07 09:50:38;;;;;;;7.70;4.30;;;;;;;;;;5010377;28;20041;-58
2023/04/07 09:53:04;;;;;;;6.38;4.40;;;;;;;;;;5011883;28;20643;-59
2023/04/07 09:55:30;;;;;;;9.35;4.88;;;;;;;;;;5011758;28;20033;-58
2023/04/07 09:57:58;;;;;;;7.68;5.20;;;;;;;;;;5011205;28;20049;-58
2023/04/07 10:00:25;;;;;;;10.23;4.53;;;;;;;;;;5010538;28;20041;-57
2023/04/07 10:02:54;;;;;;;13.00;4.25;;;;;;;;;;5009220;28;20050;-58
2023/04/07 10:05:21;;;;;;;7.70;4.07;;;;;;;;;;5011172;28;20033;-59
2023/04/07 10:07:48;;;;;;;8.80;4.20;;;;;;;;;;5008206;28;20037;-58
2023/04/07 10:10:14;;;;;;;6.82;3.63;;;;;;;;;;5009258;28;20388;-58
2023/04/07 10:12:41;;;;;;;5.32;3.13;;;;;;;;;;5009237;28;20670;-57
2023/04/07 10:15:08;;;;;;;5.93;3.50;;;;;;;;;;5008427;28;20483;-58
2023/04/07 10:17:35;;;;;;;6.70;3.20;;;;;;;;;;5011139;28;20050;-57
2023/04/07 10:20:03;;;;;;;6.00;3.38;;;;;;;;;;5007273;28;20030;-56
2023/04/07 10:22:31;;;;;;;6.95;3.15;;;;;;;;;;5011709;28;20345;-58
2023/04/07 10:25:01;;;;;;;5.65;3.20;;;;;;;;;;5010493;28;20037;-57
2023/04/07 10:27:48;;;;;;;8.95;2.70;;;;;;;;;;5011145;28;20068;-57
2023/04/07 10:30:22;;;;;;;2.55;2.20;;;;;;;;;;5005777;28;20508;-58
2023/04/07 10:32:50;;;;;;;6.20;2.72;;;;;;;;;;5011449;28;20069;-59
2023/04/07 10:35:17;;;;;;;3.92;2.08;;;;;;;;;;5010518;28;20045;-58
2023/04/07 10:38:15;;;;;;;2.13;1.80;;;;;;;;;;5010731;28;20045;-58
2023/04/07 10:40:42;;;;;;;3.92;2.22;;;;;;;;;;5010616;28;20045;-57
2023/04/07 10:43:10;;;;;;;4.10;1.90;;;;;;;;;;5010371;28;20057;-58
2023/04/07 10:45:48;;;;;;;5.97;2.42;;;;;;;;;;5011061;28;20049;-59
2023/04/07 10:48:16;;;;;;;4.55;1.92;;;;;;;;;;5010505;28;20052;-58
2023/04/07 10:51:07;;;;;;;4.18;2.00;;;;;;;;;;5008211;28;20041;-58
2023/04/07 10:53:37;;;;;;;4.22;2.58;;;;;;;;;;5009963;28;20399;-58
2023/04/07 10:56:04;;;;;;;3.45;2.17;;;;;;;;;;5007132;28;20029;-58
2023/04/07 10:58:32;;;;;;;3.00;2.30;;;;;;;;;;5008698;28;20037;-58
2023/04/07 11:01:08;;;;;;;5.82;2.50;;;;;;;;;;5009567;28;20037;-58
2023/04/07 11:03:36;;;;;;;3.92;2.17;;;;;;;;;;5010579;28;20065;-55
2023/04/07 11:06:03;;;;;;;3.92;2.78;;;;;;;;;;5010043;28;20041;-58
2023/04/07 11:08:41;;;;;;;4.90;2.40;;;;;;;;;;5009047;28;20057;-57
2023/04/07 11:11:09;;;;;;;4.70;2.60;;;;;;;;;;5006846;28;20085;-58
2023/04/07 11:13:43;;;;;;;3.85;2.55;;;;;;;;;;5007279;28;20038;-59
2023/04/07 11:16:10;;;;;;;4.20;2.50;;;;;;;;;;5010184;28;20054;-58
2023/04/07 11:18:37;;;;;;;6.05;3.10;;;;;;;;;;5010299;28;20534;-58
2023/04/07 11:21:05;;;;;;;7.75;2.85;;;;;;;;;;5009825;28;20044;-58
2023/04/07 11:23:38;;;;;;;7.80;3.20;;;;;;;;;;4992715;28;20053;-58
2023/04/07 11:26:05;;;;;;;5.25;2.70;;;;;;;;;;5007451;28;20502;-58
2023/04/07 11:28:31;;;;;;;5.53;3.67;;;;;;;;;;5009822;28;20037;-57
2023/04/07 11:30:58;;;;;;;4.05;2.40;;;;;;;;;;5009653;28;20041;-59
2023/04/07 11:33:29;;;;;;;4.93;2.92;;;;;;;;;;5010214;28;20038;-59
2023/04/07 11:36:01;;;;;;;6.53;4.32;;;;;;;;;;5010030;28;20042;-59
2023/04/07 11:38:34;;;;;;;8.43;4.28;;;;;;;;;;5009812;28;20042;-59
2023/04/07 11:41:10;;;;;;;4.20;3.40;;;;;;;;;;5009190;28;20030;-59
2023/04/07 11:43:36;;;;;;;6.63;3.88;;;;;;;;;;5009093;28;20048;-59
2023/04/07 11:46:21;;;;;;;8.75;5.43;;;;;;;;;;5003469;28;20042;-59
2023/04/07 11:48:47;;;;;;;8.23;4.72;;;;;;;;;;5009320;28;20050;-60
2023/04/07 11:51:22;;;;;;;4.05;2.20;;;;;;;;;;5009010;28;20049;-59
2023/04/07 11:53:55;;;;;;;4.53;2.78;;;;;;;;;;5007983;28;20033;-59
2023/04/07 11:56:22;;;;;;;3.70;2.60;;;;;;;;;;5009835;28;20034;-59
2023/04/07 11:58:52;;;;;;;7.72;3.63;;;;;;;;;;5009305;28;20038;-59
2023/04/07 12:01:19;;;;;;;4.70;2.70;;;;;;;;;;5008895;28;20448;-58
2023/04/07 12:04:01;;;;;;;4.57;3.30;;;;;;;;;;5008367;28;20424;-58
2023/04/07 12:06:29;;;;;;;5.53;2.40;;;;;;;;;;5010004;28;20046;-58
2023/04/07 12:08:56;;;;;;;4.20;2.50;;;;;;;;;;5008279;28;20218;-58
2023/04/07 12:11:22;;;;;;;3.88;2.58;;;;;;;;;;5007696;28;20042;-58
2023/04/07 12:13:48;;;;;;;5.18;3.75;;;;;;;;;;5007052;28;20045;-58
2023/04/07 12:16:14;;;;;;;5.80;2.50;;;;;;;;;;5006058;28;20053;-58
2023/04/07 12:18:40;;;;;;;7.47;3.80;;;;;;;;;;5009683;28;20041;-59
2023/04/07 12:21:06;;;;;;;5.50;3.90;;;;;;;;;;5005012;28;20041;-59
2023/04/07 12:23:32;;;;;;;7.32;4.57;;;;;;;;;;5007876;28;20034;-59
2023/04/07 12:26:00;;;;;;;6.80;4.47;;;;;;;;;;5008012;28;20037;-59
2023/04/07 12:28:26;;;;;;;8.02;4.78;;;;;;;;;;5009355;28;20029;-58
2023/04/07 12:30:53;;;;;;;6.05;4.18;;;;;;;;;;5008670;28;20034;-59
2023/04/07 12:33:19;;;;;;;4.07;2.85;;;;;;;;;;5009307;28;20026;-59
2023/04/07 12:35:45;;;;;;;3.67;2.22;;;;;;;;;;5009406;28;20057;-58
2023/04/07 12:38:12;;;;;;;2.95;1.73;;;;;;;;;;5007776;28;20046;-60
2023/04/07 12:40:38;;;;;;;2.40;1.73;;;;;;;;;;5008484;28;20038;-58
2023/04/07 12:43:05;;;;;;;2.00;1.80;;;;;;;;;;5009242;28;20416;-57
2023/04/07 12:45:32;;;;;;;2.78;1.90;;;;;;;;;;5009343;28;20057;-59
2023/04/07 12:47:58;;;;;;;3.20;1.90;;;;;;;;;;5009607;28;20057;-58
2023/04/07 12:50:25;;;;;;;3.45;1.80;;;;;;;;;;5008570;28;20046;-60
2023/04/07 12:52:52;;;;;;;3.92;2.30;;;;;;;;;;5009309;28;20042;-59
2023/04/07 12:55:18;;;;;;;6.75;3.20;;;;;;;;;;5008596;28;20037;-58
2023/04/07 12:57:44;;;;;;;6.65;3.50;;;;;;;;;;5008471;28;20052;-58
2023/04/07 13:00:13;;;;;;;4.97;3.53;;;;;;;;;;5004871;28;20029;-58
2023/04/07 13:02:40;;;;;;;7.05;3.28;;;;;;;;;;5008236;28;20745;-60
2023/04/07 13:05:07;;;;;;;4.32;2.58;;;;;;;;;;5000578;28;20041;-57
2023/04/07 13:07:35;;;;;;;4.28;2.83;;;;;;;;;;5007944;28;20061;-59
2023/04/07 13:10:01;;;;;;;5.85;3.15;;;;;;;;;;5003636;28;20044;-57
2023/04/07 13:12:27;;;;;;;5.28;3.63;;;;;;;;;;5003465;28;20147;-59
2023/04/07 13:14:54;;;;;;;6.32;3.78;;;;;;;;;;5003343;28;20405;-58
2023/04/07 13:17:20;;;;;;;5.95;3.35;;;;;;;;;;5007725;28;20034;-59
2023/04/07 13:19:46;;;;;;;6.22;2.97;;;;;;;;;;5007158;28;20029;-59
2023/04/07 13:22:12;;;;;;;5.88;3.20;;;;;;;;;;5002666;28;20034;-58
2023/04/07 13:24:39;;;;;;;7.40;3.40;;;;;;;;;;5008876;28;20060;-59
2023/04/07 13:27:05;;;;;;;9.15;5.60;;;;;;;;;;5010542;28;20041;-58
2023/04/07 13:29:31;;;;;;;8.75;4.90;;;;;;;;;;5009084;28;20037;-59
2023/04/07 13:32:05;;;;;;;8.52;4.30;;;;;;;;;;5011343;28;20037;-60
2023/04/07 13:34:33;;;;;;;15.63;8.80;;;;;;;;;;5010785;28;20368;-60
2023/04/07 13:37:03;;;;;;;9.73;5.53;;;;;;;;;;5010909;28;20042;-59
2023/04/07 13:39:30;;;;;;;6.78;4.57;;;;;;;;;;5009662;28;20514;-59
2023/04/07 13:41:56;;;;;;;2.97;2.67;;;;;;;;;;5008144;28;20053;-59
2023/04/07 13:44:23;;;;;;;4.22;2.67;;;;;;;;;;5005075;28;20037;-59
2023/04/07 13:46:50;;;;;;;3.92;2.83;;;;;;;;;;5010778;28;20041;-59
2023/04/07 13:49:16;;;;;;;3.40;3.00;;;;;;;;;;5009152;28;20049;-58
2023/04/07 13:51:42;;;;;;;3.15;2.72;;;;;;;;;;5010021;28;20036;-58
2023/04/07 13:54:08;;;;;;;6.68;2.70;;;;;;;;;;5010088;28;20060;-58
2023/04/07 13:56:37;;;;;;;8.70;2.90;;;;;;;;;;5011388;28;20050;-57
2023/04/07 13:59:05;;;;;;;5.78;3.60;;;;;;;;;;5008398;28;20530;-58
2023/04/07 14:01:32;;;;;;;3.83;2.38;;;;;;;;;;5008777;28;20117;-57
2023/04/07 14:03:58;;;;;;;5.20;2.90;;;;;;;;;;5009347;28;20050;-58
2023/04/07 14:06:25;;;;;;;6.15;3.60;;;;;;;;;;5009255;28;20057;-58
2023/04/07 14:08:52;;;;;;;5.32;3.58;;;;;;;;;;5011066;28;20642;-58
2023/04/07 14:11:18;;;;;;;5.82;3.17;;;;;;;;;;5009373;28;20086;-59
2023/04/07 14:13:45;;;;;;;10.35;5.40;;;;;;;;;;5008706;28;20373;-58
2023/04/07 14:16:11;;;;;;;9.13;6.30;;;;;;;;;;5010249;28;20049;-58
2023/04/07 14:18:37;;;;;;;7.00;4.78;;;;;;;;;;5010673;28;20054;-59
2023/04/07 14:21:04;;;;;;;8.35;6.18;;;;;;;;;;5010408;28;20042;-59
2023/04/07 14:23:31;;;;;;;6.15;4.68;;;;;;;;;;5010948;28;20503;-59
2023/04/07 14:25:58;;;;;;;6.35;4.10;;;;;;;;;;5011667;28;20053;-58
2023/04/07 14:28:26;;;;;;;18.67;9.57;;;;;;;;;;5011377;28;20728;-58
2023/04/07 14:30:53;;;;;;;7.10;4.60;;;;;;;;;;5004799;28;20042;-58
2023/04/07 14:33:20;;;;;;;7.13;4.75;;;;;;;;;;5011404;28;20042;-58
2023/04/07 14:35:47;;;;;;;6.07;4.22;;;;;;;;;;5010592;28;20030;-60
2023/04/07 14:38:14;;;;;;;7.28;4.70;;;;;;;;;;5011074;28;20029;-58
2023/04/07 14:40:40;;;;;;;4.82;4.13;;;;;;;;;;5009837;28;20030;-59